sensor_id;sensor_type;location;lat;lon;timestamp;P1;durP1;ratioP1;P2;durP2;ratioP2
59653;SDS011;66556;52.008;5.432;2023-02-19T00:02:26;59.3;;;24.6;;
59653;SDS011;66556;52.008;5.432;2023-02-19T00:04:04;56.7;;;23.3;;
59653;SDS011;66556;52.008;5.432;2023-02-19T00:05:42;60.0;;;25.9;;
59653;SDS011;66556;52.008;5.432;2023-02-19T00:07:18;56.0;;;24.0;;
59653;SDS011;66556;52.008;5.432;2023-02-19T00:10:33;57.5;;;23.7;;
59653;SDS011;66556;52.008;5.432;2023-02-19T00:12:09;45.6;;;20.2;;
59653;SDS011;66556;52.008;5.432;2023-02-19T00:13:47;46.6;;;20.41;;
59653;SDS011;66556;52.008;5.432;2023-02-19T00:17:02;45.6;;;20.7;;
59653;SDS011;66556;52.008;5.432;2023-02-19T00:18:38;47.6;;;21.2;;
59653;SDS011;66556;52.008;5.432;2023-02-19T00:20:15;60.0;;;23.4;;
59653;SDS011;66556;52.008;5.432;2023-02-19T00:21:52;50.8;;;21.2;;
59653;SDS011;66556;52.008;5.432;2023-02-19T00:25:06;44.0;;;19.11;;
59653;SDS011;66556;52.008;5.432;2023-02-19T00:26:43;50.4;;;20.41;;
59653;SDS011;66556;52.008;5.432;2023-02-19T00:28:21;48.5;;;20.5;;
59653;SDS011;66556;52.008;5.432;2023-02-19T00:31:34;42.2;;;19.91;;
59653;SDS011;66556;52.008;5.432;2023-02-19T00:33:11;41.0;;;18.8;;
59653;SDS011;66556;52.008;5.432;2023-02-19T00:34:48;38.5;;;16.3;;
59653;SDS011;66556;52.008;5.432;2023-02-19T00:38:02;38.6;;;16.61;;
59653;SDS011;66556;52.008;5.432;2023-02-19T00:39:39;36.31;;;17.2;;
59653;SDS011;66556;52.008;5.432;2023-02-19T00:41:19;40.6;;;17.91;;
59653;SDS011;66556;52.008;5.432;2023-02-19T00:42:58;34.21;;;15.3;;
59653;SDS011;66556;52.008;5.432;2023-02-19T00:46:10;34.21;;;15.3;;
59653;SDS011;66556;52.008;5.432;2023-02-19T00:47:46;34.1;;;16.0;;
59653;SDS011;66556;52.008;5.432;2023-02-19T00:49:23;30.5;;;14.4;;
59653;SDS011;66556;52.008;5.432;2023-02-19T00:52:36;31.0;;;13.6;;
59653;SDS011;66556;52.008;5.432;2023-02-19T00:54:12;36.0;;;14.6;;
59653;SDS011;66556;52.008;5.432;2023-02-19T00:55:49;30.0;;;12.7;;
59653;SDS011;66556;52.008;5.432;2023-02-19T00:57:25;31.1;;;13.2;;
59653;SDS011;66556;52.008;5.432;2023-02-19T01:00:40;31.1;;;13.6;;
59653;SDS011;66556;52.008;5.432;2023-02-19T01:02:16;32.0;;;13.5;;
59653;SDS011;66556;52.008;5.432;2023-02-19T01:03:53;27.2;;;12.6;;
59653;SDS011;66556;52.008;5.432;2023-02-19T01:07:06;35.4;;;14.2;;
59653;SDS011;66556;52.008;5.432;2023-02-19T01:08:43;30.0;;;12.4;;
59653;SDS011;66556;52.008;5.432;2023-02-19T01:10:20;30.3;;;12.7;;
59653;SDS011;66556;52.008;5.432;2023-02-19T01:13:34;34.0;;;12.6;;
59653;SDS011;66556;52.008;5.432;2023-02-19T01:15:11;27.6;;;11.5;;
59653;SDS011;66556;52.008;5.432;2023-02-19T01:16:47;30.3;;;12.0;;
59653;SDS011;66556;52.008;5.432;2023-02-19T01:18:23;29.5;;;11.3;;
59653;SDS011;66556;52.008;5.432;2023-02-19T01:21:35;29.0;;;10.8;;
59653;SDS011;66556;52.008;5.432;2023-02-19T01:23:12;26.9;;;10.1;;
59653;SDS011;66556;52.008;5.432;2023-02-19T01:24:48;31.8;;;9.1;;
59653;SDS011;66556;52.008;5.432;2023-02-19T01:28:04;28.9;;;9.31;;
59653;SDS011;66556;52.008;5.432;2023-02-19T01:29:41;28.5;;;8.81;;
59653;SDS011;66556;52.008;5.432;2023-02-19T01:31:19;28.5;;;8.81;;
59653;SDS011;66556;52.008;5.432;2023-02-19T01:34:34;22.9;;;7.8;;
59653;SDS011;66556;52.008;5.432;2023-02-19T01:36:11;25.3;;;7.6;;
59653;SDS011;66556;52.008;5.432;2023-02-19T01:37:48;25.4;;;6.7;;
59653;SDS011;66556;52.008;5.432;2023-02-19T01:39:25;27.7;;;7.7;;
59653;SDS011;66556;52.008;5.432;2023-02-19T01:42:42;29.5;;;7.7;;
59653;SDS011;66556;52.008;5.432;2023-02-19T01:45:25;28.3;;;7.3;;
59653;SDS011;66556;52.008;5.432;2023-02-19T01:47:04;26.6;;;7.4;;
59653;SDS011;66556;52.008;5.432;2023-02-19T01:48:41;25.3;;;6.6;;
59653;SDS011;66556;52.008;5.432;2023-02-19T01:50:19;24.5;;;6.3;;
59653;SDS011;66556;52.008;5.432;2023-02-19T01:51:57;20.6;;;6.0;;
59653;SDS011;66556;52.008;5.432;2023-02-19T01:55:19;24.6;;;6.2;;
59653;SDS011;66556;52.008;5.432;2023-02-19T01:56:56;27.2;;;7.0;;
59653;SDS011;66556;52.008;5.432;2023-02-19T01:58:35;28.0;;;7.1;;
59653;SDS011;66556;52.008;5.432;2023-02-19T02:00:14;26.0;;;6.5;;
59653;SDS011;66556;52.008;5.432;2023-02-19T02:03:28;26.1;;;6.8;;
59653;SDS011;66556;52.008;5.432;2023-02-19T02:05:07;27.3;;;6.8;;
59653;SDS011;66556;52.008;5.432;2023-02-19T02:06:52;27.9;;;7.0;;
59653;SDS011;66556;52.008;5.432;2023-02-19T02:11:56;23.1;;;7.2;;
59653;SDS011;66556;52.008;5.432;2023-02-19T02:13:32;23.5;;;7.0;;
59653;SDS011;66556;52.008;5.432;2023-02-19T02:15:11;24.5;;;7.5;;
59653;SDS011;66556;52.008;5.432;2023-02-19T02:18:37;24.5;;;7.5;;
59653;SDS011;66556;52.008;5.432;2023-02-19T02:20:31;26.0;;;7.5;;
59653;SDS011;66556;52.008;5.432;2023-02-19T02:22:28;20.7;;;6.7;;
59653;SDS011;66556;52.008;5.432;2023-02-19T02:24:19;23.5;;;6.9;;
59653;SDS011;66556;52.008;5.432;2023-02-19T02:26:21;23.1;;;6.8;;
59653;SDS011;66556;52.008;5.432;2023-02-19T02:28:27;24.6;;;7.4;;
59653;SDS011;66556;52.008;5.432;2023-02-19T02:30:28;25.1;;;6.8;;
59653;SDS011;66556;52.008;5.432;2023-02-19T02:32:14;23.4;;;7.0;;
59653;SDS011;66556;52.008;5.432;2023-02-19T02:33:57;25.6;;;7.4;;
59653;SDS011;66556;52.008;5.432;2023-02-19T02:37:22;24.6;;;7.2;;
59653;SDS011;66556;52.008;5.432;2023-02-19T02:39:05;26.7;;;7.8;;
59653;SDS011;66556;52.008;5.432;2023-02-19T02:40:46;21.3;;;6.4;;
59653;SDS011;66556;52.008;5.432;2023-02-19T02:42:26;26.5;;;7.1;;
59653;SDS011;66556;52.008;5.432;2023-02-19T02:45:40;25.5;;;6.9;;
59653;SDS011;66556;52.008;5.432;2023-02-19T02:47:40;24.1;;;6.8;;
59653;SDS011;66556;52.008;5.432;2023-02-19T02:49:23;23.2;;;6.3;;
59653;SDS011;66556;52.008;5.432;2023-02-19T02:51:03;19.7;;;5.6;;
59653;SDS011;66556;52.008;5.432;2023-02-19T02:55:09;22.8;;;6.3;;
59653;SDS011;66556;52.008;5.432;2023-02-19T02:56:47;23.7;;;6.5;;
59653;SDS011;66556;52.008;5.432;2023-02-19T03:00:05;22.1;;;7.1;;
59653;SDS011;66556;52.008;5.432;2023-02-19T03:02:18;20.7;;;6.5;;
59653;SDS011;66556;52.008;5.432;2023-02-19T03:04:00;17.3;;;5.7;;
59653;SDS011;66556;52.008;5.432;2023-02-19T03:05:57;19.3;;;6.3;;
59653;SDS011;66556;52.008;5.432;2023-02-19T03:07:40;20.11;;;5.7;;
59653;SDS011;66556;52.008;5.432;2023-02-19T03:09:23;19.5;;;6.0;;
59653;SDS011;66556;52.008;5.432;2023-02-19T03:19:21;20.6;;;6.8;;
59653;SDS011;66556;52.008;5.432;2023-02-19T03:21:02;17.8;;;6.0;;
59653;SDS011;66556;52.008;5.432;2023-02-19T03:22:42;20.5;;;5.7;;
59653;SDS011;66556;52.008;5.432;2023-02-19T03:26:10;17.7;;;6.1;;
59653;SDS011;66556;52.008;5.432;2023-02-19T03:27:48;20.9;;;6.5;;
59653;SDS011;66556;52.008;5.432;2023-02-19T03:29:28;17.61;;;6.3;;
59653;SDS011;66556;52.008;5.432;2023-02-19T03:31:08;17.11;;;5.8;;
59653;SDS011;66556;52.008;5.432;2023-02-19T03:32:47;22.8;;;6.5;;
59653;SDS011;66556;52.008;5.432;2023-02-19T03:34:29;19.8;;;6.2;;
59653;SDS011;66556;52.008;5.432;2023-02-19T03:37:59;23.7;;;6.4;;
59653;SDS011;66556;52.008;5.432;2023-02-19T03:39:43;19.91;;;6.2;;
59653;SDS011;66556;52.008;5.432;2023-02-19T03:41:22;20.7;;;6.0;;
59653;SDS011;66556;52.008;5.432;2023-02-19T03:43:07;15.0;;;5.4;;
59653;SDS011;66556;52.008;5.432;2023-02-19T03:44:59;17.91;;;6.0;;
59653;SDS011;66556;52.008;5.432;2023-02-19T03:48:35;20.2;;;5.9;;
59653;SDS011;66556;52.008;5.432;2023-02-19T03:50:16;16.4;;;6.1;;
59653;SDS011;66556;52.008;5.432;2023-02-19T03:51:59;20.9;;;6.0;;
59653;SDS011;66556;52.008;5.432;2023-02-19T03:53:46;21.1;;;6.7;;
59653;SDS011;66556;52.008;5.432;2023-02-19T03:55:29;21.9;;;5.7;;
59653;SDS011;66556;52.008;5.432;2023-02-19T03:58:58;19.91;;;5.7;;
59653;SDS011;66556;52.008;5.432;2023-02-19T04:00:41;18.8;;;5.6;;
59653;SDS011;66556;52.008;5.432;2023-02-19T04:02:27;18.5;;;5.5;;
59653;SDS011;66556;52.008;5.432;2023-02-19T04:04:11;19.8;;;5.8;;
59653;SDS011;66556;52.008;5.432;2023-02-19T04:05:54;18.5;;;6.2;;
59653;SDS011;66556;52.008;5.432;2023-02-19T04:09:21;19.0;;;5.9;;
59653;SDS011;66556;52.008;5.432;2023-02-19T04:11:00;19.0;;;5.9;;
59653;SDS011;66556;52.008;5.432;2023-02-19T04:12:39;17.61;;;6.0;;
59653;SDS011;66556;52.008;5.432;2023-02-19T04:14:22;17.11;;;5.4;;
59653;SDS011;66556;52.008;5.432;2023-02-19T04:17:57;20.6;;;5.9;;
59653;SDS011;66556;52.008;5.432;2023-02-19T04:19:38;20.2;;;5.9;;
59653;SDS011;66556;52.008;5.432;2023-02-19T04:21:17;20.5;;;5.7;;
59653;SDS011;66556;52.008;5.432;2023-02-19T04:22:57;21.3;;;5.7;;
59653;SDS011;66556;52.008;5.432;2023-02-19T04:24:36;21.9;;;6.1;;
59653;SDS011;66556;52.008;5.432;2023-02-19T04:27:58;21.9;;;6.8;;
59653;SDS011;66556;52.008;5.432;2023-02-19T04:29:35;19.3;;;6.3;;
59653;SDS011;66556;52.008;5.432;2023-02-19T04:31:12;20.11;;;6.5;;
59653;SDS011;66556;52.008;5.432;2023-02-19T04:34:26;19.11;;;6.0;;
59653;SDS011;66556;52.008;5.432;2023-02-19T04:36:03;18.91;;;5.7;;
59653;SDS011;66556;52.008;5.432;2023-02-19T04:37:42;21.2;;;6.3;;
59653;SDS011;66556;52.008;5.432;2023-02-19T04:39:20;19.8;;;6.5;;
59653;SDS011;66556;52.008;5.432;2023-02-19T04:42:33;20.8;;;6.6;;
59653;SDS011;66556;52.008;5.432;2023-02-19T04:44:10;21.7;;;6.6;;
59653;SDS011;66556;52.008;5.432;2023-02-19T04:45:47;18.41;;;6.2;;
59653;SDS011;66556;52.008;5.432;2023-02-19T04:49:00;16.3;;;6.5;;
59653;SDS011;66556;52.008;5.432;2023-02-19T04:50:38;13.5;;;5.4;;
59653;SDS011;66556;52.008;5.432;2023-02-19T04:52:15;15.8;;;5.5;;
59653;SDS011;66556;52.008;5.432;2023-02-19T04:53:52;18.61;;;5.9;;
59653;SDS011;66556;52.008;5.432;2023-02-19T04:57:04;18.2;;;5.8;;
59653;SDS011;66556;52.008;5.432;2023-02-19T04:58:41;21.5;;;6.0;;
59653;SDS011;66556;52.008;5.432;2023-02-19T05:00:19;20.6;;;6.7;;
59653;SDS011;66556;52.008;5.432;2023-02-19T05:03:34;18.3;;;6.4;;
59653;SDS011;66556;52.008;5.432;2023-02-19T05:05:11;20.6;;;6.1;;
59653;SDS011;66556;52.008;5.432;2023-02-19T05:06:48;22.1;;;6.8;;
59653;SDS011;66556;52.008;5.432;2023-02-19T05:10:01;20.8;;;6.8;;
59653;SDS011;66556;52.008;5.432;2023-02-19T05:11:38;22.5;;;6.6;;
59653;SDS011;66556;52.008;5.432;2023-02-19T05:13:14;16.9;;;6.2;;
59653;SDS011;66556;52.008;5.432;2023-02-19T05:14:50;22.5;;;6.8;;
59653;SDS011;66556;52.008;5.432;2023-02-19T05:18:03;24.5;;;7.4;;
59653;SDS011;66556;52.008;5.432;2023-02-19T05:19:41;21.6;;;6.8;;
59653;SDS011;66556;52.008;5.432;2023-02-19T05:21:17;19.61;;;6.2;;
59653;SDS011;66556;52.008;5.432;2023-02-19T05:24:31;23.4;;;6.5;;
59653;SDS011;66556;52.008;5.432;2023-02-19T05:26:10;20.2;;;6.1;;
59653;SDS011;66556;52.008;5.432;2023-02-19T05:27:48;19.2;;;5.9;;
59653;SDS011;66556;52.008;5.432;2023-02-19T05:29:24;18.61;;;5.8;;
59653;SDS011;66556;52.008;5.432;2023-02-19T05:32:41;18.5;;;5.8;;
59653;SDS011;66556;52.008;5.432;2023-02-19T05:34:18;19.3;;;6.0;;
59653;SDS011;66556;52.008;5.432;2023-02-19T05:35:55;19.0;;;5.7;;
59653;SDS011;66556;52.008;5.432;2023-02-19T05:39:09;17.0;;;5.5;;
59653;SDS011;66556;52.008;5.432;2023-02-19T05:40:47;18.3;;;5.8;;
59653;SDS011;66556;52.008;5.432;2023-02-19T05:42:24;18.8;;;5.7;;
59653;SDS011;66556;52.008;5.432;2023-02-19T05:44:00;15.5;;;5.4;;
59653;SDS011;66556;52.008;5.432;2023-02-19T05:47:15;24.5;;;6.3;;
59653;SDS011;66556;52.008;5.432;2023-02-19T05:48:52;17.3;;;5.5;;
59653;SDS011;66556;52.008;5.432;2023-02-19T05:50:30;21.4;;;5.6;;
59653;SDS011;66556;52.008;5.432;2023-02-19T05:53:44;17.5;;;5.2;;
59653;SDS011;66556;52.008;5.432;2023-02-19T05:55:21;19.0;;;5.3;;
59653;SDS011;66556;52.008;5.432;2023-02-19T05:56:59;25.8;;;5.7;;
59653;SDS011;66556;52.008;5.432;2023-02-19T06:00:13;21.9;;;5.3;;
59653;SDS011;66556;52.008;5.432;2023-02-19T06:01:51;17.0;;;5.3;;
59653;SDS011;66556;52.008;5.432;2023-02-19T06:03:29;19.5;;;5.3;;
59653;SDS011;66556;52.008;5.432;2023-02-19T06:05:07;19.61;;;5.7;;
59653;SDS011;66556;52.008;5.432;2023-02-19T06:08:21;17.61;;;5.11;;
59653;SDS011;66556;52.008;5.432;2023-02-19T06:09:58;20.2;;;5.3;;
59653;SDS011;66556;52.008;5.432;2023-02-19T06:11:34;21.3;;;5.5;;
59653;SDS011;66556;52.008;5.432;2023-02-19T06:14:47;18.8;;;5.11;;
59653;SDS011;66556;52.008;5.432;2023-02-19T06:16:24;21.7;;;5.8;;
59653;SDS011;66556;52.008;5.432;2023-02-19T06:18:01;21.4;;;5.9;;
59653;SDS011;66556;52.008;5.432;2023-02-19T06:19:38;19.5;;;6.0;;
59653;SDS011;66556;52.008;5.432;2023-02-19T06:22:52;19.2;;;5.6;;
59653;SDS011;66556;52.008;5.432;2023-02-19T06:24:30;20.11;;;5.5;;
59653;SDS011;66556;52.008;5.432;2023-02-19T06:26:07;18.5;;;5.8;;
59653;SDS011;66556;52.008;5.432;2023-02-19T06:29:23;19.2;;;5.9;;
59653;SDS011;66556;52.008;5.432;2023-02-19T06:31:00;18.41;;;6.0;;
59653;SDS011;66556;52.008;5.432;2023-02-19T06:32:37;16.4;;;5.4;;
59653;SDS011;66556;52.008;5.432;2023-02-19T06:34:15;15.2;;;5.5;;
59653;SDS011;66556;52.008;5.432;2023-02-19T06:39:05;15.3;;;5.5;;
59653;SDS011;66556;52.008;5.432;2023-02-19T06:40:42;20.9;;;5.6;;
59653;SDS011;66556;52.008;5.432;2023-02-19T06:43:55;20.0;;;5.6;;
59653;SDS011;66556;52.008;5.432;2023-02-19T06:45:32;16.3;;;5.9;;
59653;SDS011;66556;52.008;5.432;2023-02-19T06:47:09;15.6;;;5.2;;
59653;SDS011;66556;52.008;5.432;2023-02-19T06:50:23;24.8;;;6.0;;
59653;SDS011;66556;52.008;5.432;2023-02-19T06:52:00;16.3;;;5.8;;
59653;SDS011;66556;52.008;5.432;2023-02-19T06:53:37;18.3;;;5.9;;
59653;SDS011;66556;52.008;5.432;2023-02-19T06:55:14;20.2;;;5.4;;
59653;SDS011;66556;52.008;5.432;2023-02-19T06:58:29;18.61;;;5.7;;
59653;SDS011;66556;52.008;5.432;2023-02-19T07:00:06;17.2;;;5.5;;
59653;SDS011;66556;52.008;5.432;2023-02-19T07:01:44;15.8;;;5.7;;
59653;SDS011;66556;52.008;5.432;2023-02-19T07:04:58;16.5;;;5.6;;
59653;SDS011;66556;52.008;5.432;2023-02-19T07:06:34;16.2;;;6.0;;
59653;SDS011;66556;52.008;5.432;2023-02-19T07:08:11;15.4;;;5.8;;
59653;SDS011;66556;52.008;5.432;2023-02-19T07:09:48;16.9;;;6.0;;
59653;SDS011;66556;52.008;5.432;2023-02-19T07:13:04;15.5;;;5.6;;
59653;SDS011;66556;52.008;5.432;2023-02-19T07:14:41;19.91;;;6.2;;
59653;SDS011;66556;52.008;5.432;2023-02-19T07:16:17;16.9;;;5.9;;
59653;SDS011;66556;52.008;5.432;2023-02-19T07:19:31;15.9;;;6.7;;
59653;SDS011;66556;52.008;5.432;2023-02-19T07:21:09;22.3;;;7.0;;
59653;SDS011;66556;52.008;5.432;2023-02-19T07:22:49;19.5;;;7.3;;
59653;SDS011;66556;52.008;5.432;2023-02-19T07:24:25;20.41;;;7.6;;
59653;SDS011;66556;52.008;5.432;2023-02-19T07:27:42;26.9;;;8.4;;
59653;SDS011;66556;52.008;5.432;2023-02-19T07:29:19;24.8;;;8.31;;
59653;SDS011;66556;52.008;5.432;2023-02-19T07:30:58;27.5;;;8.81;;
59653;SDS011;66556;52.008;5.432;2023-02-19T07:34:16;20.6;;;8.31;;
59653;SDS011;66556;52.008;5.432;2023-02-19T07:35:52;25.6;;;8.71;;
59653;SDS011;66556;52.008;5.432;2023-02-19T07:37:29;24.7;;;9.1;;
59653;SDS011;66556;52.008;5.432;2023-02-19T07:39:05;22.5;;;8.1;;
59653;SDS011;66556;52.008;5.432;2023-02-19T07:42:26;23.1;;;8.4;;
59653;SDS011;66556;52.008;5.432;2023-02-19T07:44:02;21.2;;;7.6;;
59653;SDS011;66556;52.008;5.432;2023-02-19T07:45:39;23.2;;;8.1;;
59653;SDS011;66556;52.008;5.432;2023-02-19T07:48:51;21.9;;;7.9;;
59653;SDS011;66556;52.008;5.432;2023-02-19T07:50:27;23.9;;;8.4;;
59653;SDS011;66556;52.008;5.432;2023-02-19T07:52:03;27.4;;;8.5;;
59653;SDS011;66556;52.008;5.432;2023-02-19T07:55:16;20.6;;;8.4;;
59653;SDS011;66556;52.008;5.432;2023-02-19T07:56:53;24.5;;;8.6;;
59653;SDS011;66556;52.008;5.432;2023-02-19T07:58:29;23.4;;;8.71;;
59653;SDS011;66556;52.008;5.432;2023-02-19T08:00:07;20.9;;;7.6;;
59653;SDS011;66556;52.008;5.432;2023-02-19T08:04:38;15.6;;;6.7;;
59653;SDS011;66556;52.008;5.432;2023-02-19T08:06:15;17.2;;;7.0;;
59653;SDS011;66556;52.008;5.432;2023-02-19T08:09:29;17.61;;;6.9;;
59653;SDS011;66556;52.008;5.432;2023-02-19T08:13:29;19.3;;;7.3;;
59653;SDS011;66556;52.008;5.432;2023-02-19T08:15:06;23.7;;;7.7;;
59653;SDS011;66556;52.008;5.432;2023-02-19T08:16:47;19.7;;;7.4;;
59653;SDS011;66556;52.008;5.432;2023-02-19T08:20:04;17.91;;;6.6;;
59653;SDS011;66556;52.008;5.432;2023-02-19T08:21:41;19.0;;;6.6;;
59653;SDS011;66556;52.008;5.432;2023-02-19T08:23:19;13.6;;;6.2;;
59653;SDS011;66556;52.008;5.432;2023-02-19T08:26:32;17.8;;;6.7;;
59653;SDS011;66556;52.008;5.432;2023-02-19T08:28:10;20.3;;;7.1;;
59653;SDS011;66556;52.008;5.432;2023-02-19T08:29:47;19.11;;;5.9;;
59653;SDS011;66556;52.008;5.432;2023-02-19T08:31:23;14.1;;;5.9;;
59653;SDS011;66556;52.008;5.432;2023-02-19T08:34:37;13.9;;;5.5;;
59653;SDS011;66556;52.008;5.432;2023-02-19T08:36:13;15.5;;;6.0;;
59653;SDS011;66556;52.008;5.432;2023-02-19T08:37:50;14.7;;;6.3;;
59653;SDS011;66556;52.008;5.432;2023-02-19T08:41:09;18.3;;;6.3;;
59653;SDS011;66556;52.008;5.432;2023-02-19T08:42:47;16.11;;;6.5;;
59653;SDS011;66556;52.008;5.432;2023-02-19T08:44:24;20.2;;;7.1;;
59653;SDS011;66556;52.008;5.432;2023-02-19T08:47:38;18.5;;;7.5;;
59653;SDS011;66556;52.008;5.432;2023-02-19T08:49:15;16.2;;;6.8;;
59653;SDS011;66556;52.008;5.432;2023-02-19T08:50:52;15.4;;;6.7;;
59653;SDS011;66556;52.008;5.432;2023-02-19T08:52:31;21.8;;;7.7;;
59653;SDS011;66556;52.008;5.432;2023-02-19T08:55:44;16.4;;;6.9;;
59653;SDS011;66556;52.008;5.432;2023-02-19T08:57:20;18.2;;;7.0;;
59653;SDS011;66556;52.008;5.432;2023-02-19T08:58:56;18.3;;;7.5;;
59653;SDS011;66556;52.008;5.432;2023-02-19T09:02:08;16.5;;;7.0;;
59653;SDS011;66556;52.008;5.432;2023-02-19T09:05:21;15.7;;;6.9;;
59653;SDS011;66556;52.008;5.432;2023-02-19T09:06:57;16.7;;;7.3;;
59653;SDS011;66556;52.008;5.432;2023-02-19T09:10:09;21.5;;;7.9;;
59653;SDS011;66556;52.008;5.432;2023-02-19T09:11:48;16.61;;;7.3;;
59653;SDS011;66556;52.008;5.432;2023-02-19T09:13:26;17.61;;;6.8;;
59653;SDS011;66556;52.008;5.432;2023-02-19T09:16:40;20.3;;;8.0;;
59653;SDS011;66556;52.008;5.432;2023-02-19T09:18:16;18.5;;;8.0;;
59653;SDS011;66556;52.008;5.432;2023-02-19T09:19:53;16.8;;;7.1;;
59653;SDS011;66556;52.008;5.432;2023-02-19T09:23:06;19.91;;;8.31;;
59653;SDS011;66556;52.008;5.432;2023-02-19T09:24:43;17.11;;;7.4;;
59653;SDS011;66556;52.008;5.432;2023-02-19T09:26:20;17.5;;;7.9;;
59653;SDS011;66556;52.008;5.432;2023-02-19T09:27:56;18.8;;;7.6;;
59653;SDS011;66556;52.008;5.432;2023-02-19T09:31:11;19.91;;;7.6;;
59653;SDS011;66556;52.008;5.432;2023-02-19T09:32:50;20.11;;;7.9;;
59653;SDS011;66556;52.008;5.432;2023-02-19T09:34:27;15.3;;;7.2;;
59653;SDS011;66556;52.008;5.432;2023-02-19T09:37:42;18.5;;;7.6;;
59653;SDS011;66556;52.008;5.432;2023-02-19T09:39:19;21.0;;;7.5;;
59653;SDS011;66556;52.008;5.432;2023-02-19T09:40:56;18.11;;;7.4;;
59653;SDS011;66556;52.008;5.432;2023-02-19T09:42:41;18.0;;;7.4;;
59653;SDS011;66556;52.008;5.432;2023-02-19T09:46:05;19.0;;;7.2;;
59653;SDS011;66556;52.008;5.432;2023-02-19T09:48:04;20.41;;;6.9;;
59653;SDS011;66556;52.008;5.432;2023-02-19T09:49:49;21.3;;;7.0;;
59653;SDS011;66556;52.008;5.432;2023-02-19T09:51:30;19.11;;;6.6;;
59653;SDS011;66556;52.008;5.432;2023-02-19T09:53:11;16.7;;;6.4;;
59653;SDS011;66556;52.008;5.432;2023-02-19T09:56:38;18.7;;;6.6;;
59653;SDS011;66556;52.008;5.432;2023-02-19T09:58:21;13.7;;;5.7;;
59653;SDS011;66556;52.008;5.432;2023-02-19T10:00:03;14.8;;;5.8;;
59653;SDS011;66556;52.008;5.432;2023-02-19T10:01:57;17.8;;;6.2;;
59653;SDS011;66556;52.008;5.432;2023-02-19T10:03:43;20.5;;;6.2;;
59653;SDS011;66556;52.008;5.432;2023-02-19T10:07:02;21.3;;;6.4;;
59653;SDS011;66556;52.008;5.432;2023-02-19T10:08:39;17.91;;;5.2;;
59653;SDS011;66556;52.008;5.432;2023-02-19T10:10:20;13.9;;;4.91;;
59653;SDS011;66556;52.008;5.432;2023-02-19T10:12:03;14.1;;;4.61;;
59653;SDS011;66556;52.008;5.432;2023-02-19T10:15:41;16.8;;;4.41;;
59653;SDS011;66556;52.008;5.432;2023-02-19T10:17:23;11.7;;;4.41;;
59653;SDS011;66556;52.008;5.432;2023-02-19T10:19:08;14.8;;;4.0;;
59653;SDS011;66556;52.008;5.432;2023-02-19T10:20:46;13.6;;;4.3;;
59653;SDS011;66556;52.008;5.432;2023-02-19T10:22:25;15.1;;;4.1;;
59653;SDS011;66556;52.008;5.432;2023-02-19T10:25:42;14.6;;;4.2;;
59653;SDS011;66556;52.008;5.432;2023-02-19T10:27:21;14.9;;;4.1;;
59653;SDS011;66556;52.008;5.432;2023-02-19T10:29:02;14.5;;;4.41;;
59653;SDS011;66556;52.008;5.432;2023-02-19T10:30:41;11.6;;;3.7;;
59653;SDS011;66556;52.008;5.432;2023-02-19T10:34:01;13.0;;;3.8;;
59653;SDS011;66556;52.008;5.432;2023-02-19T10:35:49;12.5;;;3.8;;
59653;SDS011;66556;52.008;5.432;2023-02-19T10:37:31;9.21;;;3.7;;
59653;SDS011;66556;52.008;5.432;2023-02-19T10:39:29;10.5;;;4.0;;
59653;SDS011;66556;52.008;5.432;2023-02-19T10:41:17;11.4;;;3.9;;
59653;SDS011;66556;52.008;5.432;2023-02-19T10:44:37;10.9;;;3.6;;
59653;SDS011;66556;52.008;5.432;2023-02-19T10:46:20;10.5;;;3.3;;
59653;SDS011;66556;52.008;5.432;2023-02-19T10:47:59;12.9;;;3.3;;
59653;SDS011;66556;52.008;5.432;2023-02-19T10:49:36;12.9;;;3.3;;
59653;SDS011;66556;52.008;5.432;2023-02-19T10:53:07;13.2;;;3.5;;
59653;SDS011;66556;52.008;5.432;2023-02-19T10:55:13;9.1;;;3.5;;
59653;SDS011;66556;52.008;5.432;2023-02-19T10:57:01;10.4;;;3.5;;
59653;SDS011;66556;52.008;5.432;2023-02-19T10:59:12;10.0;;;3.6;;
59653;SDS011;66556;52.008;5.432;2023-02-19T11:01:15;9.31;;;3.5;;
59653;SDS011;66556;52.008;5.432;2023-02-19T11:03:26;9.9;;;3.5;;
59653;SDS011;66556;52.008;5.432;2023-02-19T11:05:05;9.0;;;3.5;;
59653;SDS011;66556;52.008;5.432;2023-02-19T11:06:53;12.3;;;3.7;;
59653;SDS011;66556;52.008;5.432;2023-02-19T11:08:30;11.0;;;3.8;;
59653;SDS011;66556;52.008;5.432;2023-02-19T11:12:04;10.3;;;3.7;;
59653;SDS011;66556;52.008;5.432;2023-02-19T11:13:42;14.5;;;4.7;;
59653;SDS011;66556;52.008;5.432;2023-02-19T11:15:20;13.2;;;4.2;;
59653;SDS011;66556;52.008;5.432;2023-02-19T11:16:59;15.0;;;4.91;;
59653;SDS011;66556;52.008;5.432;2023-02-19T11:20:17;10.9;;;4.5;;
59653;SDS011;66556;52.008;5.432;2023-02-19T11:21:54;10.5;;;3.6;;
59653;SDS011;66556;52.008;5.432;2023-02-19T11:23:32;12.8;;;3.6;;
59653;SDS011;66556;52.008;5.432;2023-02-19T11:25:17;14.7;;;4.3;;
59653;SDS011;66556;52.008;5.432;2023-02-19T11:28:34;9.81;;;3.4;;
59653;SDS011;66556;52.008;5.432;2023-02-19T11:30:25;11.8;;;3.7;;
59653;SDS011;66556;52.008;5.432;2023-02-19T11:32:25;10.5;;;3.9;;
59653;SDS011;66556;52.008;5.432;2023-02-19T11:34:21;10.5;;;3.6;;
59653;SDS011;66556;52.008;5.432;2023-02-19T11:36:16;8.4;;;3.0;;
59653;SDS011;66556;52.008;5.432;2023-02-19T11:38:04;8.31;;;2.6;;
59653;SDS011;66556;52.008;5.432;2023-02-19T11:39:45;8.2;;;2.6;;
59653;SDS011;66556;52.008;5.432;2023-02-19T11:43:29;9.1;;;3.0;;
59653;SDS011;66556;52.008;5.432;2023-02-19T11:45:35;8.9;;;2.9;;
59653;SDS011;66556;52.008;5.432;2023-02-19T11:47:28;9.81;;;2.7;;
59653;SDS011;66556;52.008;5.432;2023-02-19T11:50:59;7.6;;;2.31;;
59653;SDS011;66556;52.008;5.432;2023-02-19T11:52:53;8.31;;;2.4;;
59653;SDS011;66556;52.008;5.432;2023-02-19T11:54:44;6.7;;;2.31;;
59653;SDS011;66556;52.008;5.432;2023-02-19T11:56:29;9.1;;;2.4;;
59653;SDS011;66556;52.008;5.432;2023-02-19T12:00:17;5.8;;;2.1;;
59653;SDS011;66556;52.008;5.432;2023-02-19T12:02:35;8.2;;;2.5;;
59653;SDS011;66556;52.008;5.432;2023-02-19T12:04:28;8.4;;;2.4;;
59653;SDS011;66556;52.008;5.432;2023-02-19T12:07:17;5.4;;;2.7;;
59653;SDS011;66556;52.008;5.432;2023-02-19T12:09:11;3.9;;;2.5;;
59653;SDS011;66556;52.008;5.432;2023-02-19T12:11:59;3.8;;;2.6;;
59653;SDS011;66556;52.008;5.432;2023-02-19T12:14:06;3.9;;;2.21;;
59653;SDS011;66556;52.008;5.432;2023-02-19T12:16:09;4.8;;;3.2;;
59653;SDS011;66556;52.008;5.432;2023-02-19T12:18:00;4.0;;;3.2;;
59653;SDS011;66556;52.008;5.432;2023-02-19T12:21:34;5.8;;;3.7;;
59653;SDS011;66556;52.008;5.432;2023-02-19T12:25:41;6.2;;;4.0;;
59653;SDS011;66556;52.008;5.432;2023-02-19T12:27:32;5.6;;;4.0;;
59653;SDS011;66556;52.008;5.432;2023-02-19T12:29:26;4.91;;;3.6;;
59653;SDS011;66556;52.008;5.432;2023-02-19T12:31:25;6.8;;;3.5;;
59653;SDS011;66556;52.008;5.432;2023-02-19T12:33:27;5.9;;;3.1;;
59653;SDS011;66556;52.008;5.432;2023-02-19T12:36:32;6.8;;;3.2;;
59653;SDS011;66556;52.008;5.432;2023-02-19T12:38:20;3.3;;;2.4;;
59653;SDS011;66556;52.008;5.432;2023-02-19T12:41:59;5.11;;;2.7;;
59653;SDS011;66556;52.008;5.432;2023-02-19T12:43:50;4.8;;;2.6;;
59653;SDS011;66556;52.008;5.432;2023-02-19T12:45:32;3.2;;;2.4;;
59653;SDS011;66556;52.008;5.432;2023-02-19T12:47:15;3.9;;;2.21;;
59653;SDS011;66556;52.008;5.432;2023-02-19T12:48:59;3.4;;;2.5;;
59653;SDS011;66556;52.008;5.432;2023-02-19T12:52:23;3.9;;;2.7;;
59653;SDS011;66556;52.008;5.432;2023-02-19T12:54:03;3.5;;;2.4;;
59653;SDS011;66556;52.008;5.432;2023-02-19T12:55:47;3.4;;;2.31;;
59653;SDS011;66556;52.008;5.432;2023-02-19T12:57:24;4.41;;;2.31;;
59653;SDS011;66556;52.008;5.432;2023-02-19T13:00:51;3.6;;;2.1;;
59653;SDS011;66556;52.008;5.432;2023-02-19T13:02:32;4.1;;;2.31;;
59653;SDS011;66556;52.008;5.432;2023-02-19T13:04:18;2.6;;;2.0;;
59653;SDS011;66556;52.008;5.432;2023-02-19T13:06:03;2.31;;;2.1;;
59653;SDS011;66556;52.008;5.432;2023-02-19T13:07:46;3.2;;;2.21;;
59653;SDS011;66556;52.008;5.432;2023-02-19T13:11:15;3.5;;;3.2;;
59653;SDS011;66556;52.008;5.432;2023-02-19T13:12:57;2.21;;;2.0;;